createdAt,value
2023-01-13T00:00:05.031Z,18.83
2023-01-13T00:00:38.317Z,18.10
2023-01-13T00:01:14.702Z,18.38
2023-01-13T00:01:46.241Z,17.60
2023-01-13T00:02:17.862Z,18.52
2023-01-13T00:02:49.421Z,18.00
2023-01-13T00:03:20.945Z,18.50
2023-01-13T00:03:53.106Z,18.70
2023-01-13T00:04:24.705Z,18.88
2023-01-13T00:04:56.255Z,18.05
2023-01-13T00:05:28.396Z,18.17
2023-01-13T00:06:00.098Z,18.38
2023-01-13T00:06:31.687Z,18.38
2023-01-13T00:07:03.206Z,17.98
2023-01-13T00:07:34.756Z,18.52
2023-01-13T00:08:06.514Z,18.48
2023-01-13T00:08:38.123Z,18.10
2023-01-13T00:09:09.627Z,18.38
2023-01-13T00:09:41.169Z,19.75
2023-01-13T00:10:12.760Z,18.98
2023-01-13T00:10:48.179Z,18.77
2023-01-13T00:11:20.827Z,18.77
2023-01-13T00:11:52.341Z,19.17
2023-01-13T00:12:23.891Z,18.30
2023-01-13T00:12:55.399Z,19.08
2023-01-13T00:13:26.956Z,18.15
2023-01-13T00:13:58.451Z,18.38
2023-01-13T00:14:30.215Z,17.85
2023-01-13T00:15:01.809Z,18.42
2023-01-13T00:15:33.737Z,18.40
2023-01-13T00:16:07.611Z,18.83
2023-01-13T00:16:39.164Z,19.63
2023-01-13T00:17:10.757Z,17.58
2023-01-13T00:17:42.323Z,19.27
2023-01-13T00:18:14.254Z,18.75
2023-01-13T00:18:46.537Z,18.88
2023-01-13T00:19:18.047Z,19.55
2023-01-13T00:19:49.872Z,20.55
2023-01-13T00:20:21.523Z,20.48
2023-01-13T00:20:58.943Z,21.58
2023-01-13T00:21:30.543Z,20.77
2023-01-13T00:22:02.159Z,20.40
2023-01-13T00:22:34.982Z,21.45
2023-01-13T00:23:06.489Z,21.23
2023-01-13T00:23:39.497Z,21.15
2023-01-13T00:24:11.096Z,21.20
2023-01-13T00:24:42.599Z,20.33
2023-01-13T00:25:14.229Z,20.88
2023-01-13T00:25:45.766Z,21.40
2023-01-13T00:26:20.398Z,21.33
2023-01-13T00:26:52.681Z,20.45
2023-01-13T00:27:25.358Z,21.05
2023-01-13T00:27:56.888Z,21.45
2023-01-13T00:28:28.556Z,21.45
2023-01-13T00:29:00.298Z,21.27
2023-01-13T00:29:31.837Z,20.98
2023-01-13T00:30:04.312Z,21.27
2023-01-13T00:30:38.387Z,21.67
2023-01-13T00:31:16.367Z,21.23
2023-01-13T00:31:49.607Z,19.55
2023-01-13T00:32:21.350Z,20.52
2023-01-13T00:32:52.953Z,20.75
2023-01-13T00:33:25.111Z,19.70
2023-01-13T00:33:57.965Z,19.75
2023-01-13T00:34:29.482Z,19.92
2023-01-13T00:35:01.030Z,20.30
2023-01-13T00:35:32.624Z,19.80
2023-01-13T00:36:05.963Z,19.77
2023-01-13T00:36:37.691Z,20.52
2023-01-13T00:37:12.948Z,19.30
2023-01-13T00:37:44.462Z,19.98
2023-01-13T00:38:16.077Z,19.70
2023-01-13T00:38:47.877Z,19.20
2023-01-13T00:39:19.439Z,19.35
2023-01-13T00:39:52.070Z,20.65
2023-01-13T00:40:23.578Z,20.45
2023-01-13T00:41:07.147Z,18.95
2023-01-13T00:41:57.399Z,19.08
2023-01-13T00:42:47.211Z,19.90
2023-01-13T00:43:24.474Z,19.75
2023-01-13T00:43:56.015Z,20.08
2023-01-13T00:44:27.520Z,19.67
2023-01-13T00:44:59.053Z,20.63
2023-01-13T00:45:30.571Z,21.08
2023-01-13T00:46:03.003Z,21.15
2023-01-13T00:46:34.602Z,20.60
2023-01-13T00:47:06.261Z,20.65
2023-01-13T00:47:37.905Z,21.27
2023-01-13T00:48:09.446Z,21.48
2023-01-13T00:48:41.302Z,21.75
2023-01-13T00:49:12.913Z,21.00
2023-01-13T00:49:44.959Z,20.85
2023-01-13T00:50:16.619Z,21.77
2023-01-13T00:50:55.901Z,21.50
2023-01-13T00:51:27.587Z,21.73
2023-01-13T00:51:59.145Z,20.85
2023-01-13T00:52:32.777Z,21.92
2023-01-13T00:53:04.308Z,21.77
2023-01-13T00:53:38.877Z,22.38
2023-01-13T00:54:10.442Z,22.42
2023-01-13T00:54:41.997Z,23.48
2023-01-13T00:55:13.536Z,22.17
2023-01-13T00:55:45.081Z,22.50
2023-01-13T00:56:38.599Z,23.20
2023-01-13T00:57:11.044Z,21.85
2023-01-13T00:57:42.634Z,22.95
2023-01-13T00:58:14.254Z,22.05
2023-01-13T00:58:46.570Z,23.08
2023-01-13T00:59:18.813Z,22.48
2023-01-13T00:59:50.360Z,22.90
2023-01-13T01:00:21.888Z,22.67
2023-01-13T01:00:53.516Z,22.83
2023-01-13T01:01:25.778Z,22.42
2023-01-13T01:01:57.431Z,23.00
2023-01-13T01:02:29.136Z,22.33
2023-01-13T01:03:01.085Z,23.10
2023-01-13T01:03:33.186Z,23.38
2023-01-13T01:04:04.922Z,23.27
2023-01-13T01:04:36.536Z,24.40
2023-01-13T01:05:08.500Z,23.58
2023-01-13T01:05:40.214Z,23.13
2023-01-13T01:06:21.544Z,22.73
2023-01-13T01:06:53.114Z,23.38
2023-01-13T01:07:24.653Z,22.63
2023-01-13T01:07:56.220Z,23.75
2023-01-13T01:08:27.762Z,23.25
2023-01-13T01:08:59.309Z,23.05
2023-01-13T01:09:33.558Z,23.58
2023-01-13T01:10:05.498Z,23.02
2023-01-13T01:10:37.087Z,23.98
2023-01-13T01:11:13.850Z,23.20
2023-01-13T01:11:45.381Z,23.15
2023-01-13T01:12:16.900Z,24.27
2023-01-13T01:12:48.417Z,23.58
2023-01-13T01:13:19.945Z,21.92
2023-01-13T01:13:52.630Z,23.48
2023-01-13T01:14:24.329Z,22.90
2023-01-13T01:14:55.891Z,22.35
2023-01-13T01:15:27.455Z,22.90
2023-01-13T01:15:59.117Z,23.23
2023-01-13T01:16:32.266Z,22.40
2023-01-13T01:17:03.818Z,22.73
2023-01-13T01:17:37.935Z,22.27
2023-01-13T01:18:09.779Z,22.27
2023-01-13T01:18:43.421Z,22.38
2023-01-13T01:19:14.965Z,22.45
2023-01-13T01:19:46.517Z,22.85
2023-01-13T01:20:18.186Z,22.55
2023-01-13T01:20:49.949Z,21.38
2023-01-13T01:21:23.553Z,21.75
2023-01-13T01:21:55.128Z,22.52
2023-01-13T01:22:26.664Z,21.48
2023-01-13T01:22:58.188Z,21.98
2023-01-13T01:23:30.110Z,22.17
2023-01-13T01:24:03.579Z,21.88
2023-01-13T01:24:35.239Z,21.33
2023-01-13T01:25:07.393Z,21.98
2023-01-13T01:25:38.915Z,22.88
2023-01-13T01:26:22.297Z,22.10
2023-01-13T01:26:53.993Z,21.88
2023-01-13T01:27:25.653Z,21.25
2023-01-13T01:27:57.154Z,22.20
2023-01-13T01:28:28.715Z,21.95
2023-01-13T01:29:02.271Z,21.92
2023-01-13T01:29:33.892Z,23.02
2023-01-13T01:30:06.040Z,21.98
2023-01-13T01:30:39.551Z,21.75
2023-01-13T01:31:20.315Z,21.88
2023-01-13T01:31:51.887Z,22.33
2023-01-13T01:32:23.455Z,21.77
2023-01-13T01:32:57.181Z,21.83
2023-01-13T01:33:28.749Z,21.75
2023-01-13T01:34:01.097Z,21.95
2023-01-13T01:34:32.783Z,22.52
2023-01-13T01:35:04.892Z,22.63
2023-01-13T01:35:40.024Z,22.45
2023-01-13T01:36:12.367Z,21.52
2023-01-13T01:36:43.897Z,20.58
2023-01-13T01:37:15.429Z,20.77
2023-01-13T01:37:46.939Z,21.60
2023-01-13T01:38:18.622Z,21.42
2023-01-13T01:38:50.480Z,21.77
2023-01-13T01:39:21.996Z,20.92
2023-01-13T01:39:53.543Z,21.13
2023-01-13T01:40:27.566Z,21.25
2023-01-13T01:40:59.714Z,21.50
2023-01-13T01:41:33.413Z,21.17
2023-01-13T01:42:23.744Z,21.75
2023-01-13T01:43:13.614Z,20.88
2023-01-13T01:44:02.245Z,19.80
2023-01-13T01:44:42.970Z,19.45
2023-01-13T01:45:21.433Z,19.27
2023-01-13T01:45:53.553Z,20.92
2023-01-13T01:46:40.367Z,20.60
2023-01-13T01:47:16.537Z,20.05
2023-01-13T01:47:52.635Z,20.08
2023-01-13T01:48:24.387Z,20.65
2023-01-13T01:49:02.857Z,21.38
2023-01-13T01:49:36.461Z,22.20
2023-01-13T01:50:09.568Z,21.40
2023-01-13T01:50:41.201Z,22.33
2023-01-13T01:51:13.545Z,21.88
2023-01-13T01:51:52.710Z,22.35
2023-01-13T01:52:32.026Z,21.10
2023-01-13T01:53:15.597Z,21.65
2023-01-13T01:53:48.066Z,20.58
2023-01-13T01:54:28.484Z,20.00
2023-01-13T01:55:12.146Z,20.58
2023-01-13T01:55:43.805Z,19.48
2023-01-13T01:56:15.804Z,20.67
2023-01-13T01:56:48.196Z,19.50
2023-01-13T01:57:27.129Z,20.08
2023-01-13T01:58:17.427Z,19.20
2023-01-13T01:58:52.186Z,18.73
2023-01-13T01:59:25.475Z,19.60
2023-01-13T01:59:58.949Z,19.67
2023-01-13T02:01:12.591Z,19.42
2023-01-13T02:01:44.806Z,19.92
2023-01-13T02:02:16.816Z,20.77
2023-01-13T02:02:50.319Z,20.88
2023-01-13T02:03:21.965Z,21.13
2023-01-13T02:03:59.379Z,20.52
2023-01-13T02:04:36.296Z,19.88
2023-01-13T02:05:08.226Z,19.33
2023-01-13T02:05:39.823Z,20.02
2023-01-13T02:06:12.344Z,20.55
2023-01-13T02:06:45.005Z,20.02
2023-01-13T02:07:20.313Z,19.30
2023-01-13T02:07:54.462Z,19.35
2023-01-13T02:08:26.298Z,19.40
2023-01-13T02:09:00.637Z,19.65
2023-01-13T02:09:33.409Z,19.60
2023-01-13T02:10:09.778Z,20.60
2023-01-13T02:10:42.958Z,19.92
2023-01-13T02:11:51.503Z,20.00
2023-01-13T02:12:34.754Z,18.08
2023-01-13T02:13:10.687Z,18.67
2023-01-13T02:13:42.214Z,18.25
2023-01-13T02:14:14.058Z,19.60
2023-01-13T02:14:45.818Z,18.08
2023-01-13T02:15:22.258Z,19.80
2023-01-13T02:16:20.056Z,19.38
2023-01-13T02:17:03.668Z,18.38
2023-01-13T02:17:47.906Z,19.13
2023-01-13T02:18:36.431Z,18.70
2023-01-13T02:19:45.603Z,18.52
2023-01-13T02:20:38.440Z,17.38
2023-01-13T02:21:27.194Z,16.95
2023-01-13T02:22:35.752Z,16.80
2023-01-13T02:23:44.791Z,16.95
2023-01-13T02:24:40.614Z,16.65
2023-01-13T02:25:43.271Z,16.73
2023-01-13T02:26:58.459Z,16.48
2023-01-13T02:27:54.007Z,16.35
2023-01-13T02:29:16.622Z,16.05
2023-01-13T02:30:41.381Z,15.18
2023-01-13T02:31:35.527Z,15.20
2023-01-13T02:32:34.167Z,15.80
2023-01-13T02:33:22.689Z,15.00
2023-01-13T02:33:54.188Z,15.82
2023-01-13T02:34:55.048Z,16.98
2023-01-13T02:35:33.454Z,16.27
2023-01-13T02:36:19.015Z,16.63
2023-01-13T02:37:00.785Z,17.55
2023-01-13T02:37:35.340Z,16.98
2023-01-13T02:38:11.107Z,17.38
2023-01-13T02:38:57.264Z,16.73
2023-01-13T02:39:41.584Z,17.25
2023-01-13T02:40:27.429Z,17.02
2023-01-13T02:41:33.893Z,18.20
2023-01-13T02:42:35.465Z,14.80
2023-01-13T02:43:35.347Z,15.48
2023-01-13T02:44:10.555Z,14.80
2023-01-13T02:44:48.522Z,15.35
2023-01-13T02:45:26.409Z,15.30
2023-01-13T02:46:17.685Z,16.00
2023-01-13T02:47:00.857Z,14.52
2023-01-13T02:47:37.789Z,15.13
2023-01-13T02:48:11.546Z,15.93
2023-01-13T02:48:45.575Z,17.13
2023-01-13T02:49:25.085Z,17.08
2023-01-13T02:50:02.164Z,16.92
2023-01-13T02:50:41.126Z,16.40
2023-01-13T02:51:17.302Z,16.40
2023-01-13T02:51:50.683Z,16.13
2023-01-13T02:52:45.835Z,16.80
2023-01-13T02:53:30.369Z,15.85
2023-01-13T02:54:13.228Z,16.20
2023-01-13T02:54:51.135Z,16.27
2023-01-13T02:55:29.063Z,16.33
2023-01-13T02:56:03.171Z,16.85
2023-01-13T02:56:40.251Z,16.70
2023-01-13T02:57:13.957Z,17.13
2023-01-13T02:57:47.765Z,16.58
2023-01-13T02:58:24.417Z,17.90
2023-01-13T02:58:57.701Z,17.17
2023-01-13T02:59:31.374Z,16.35
2023-01-13T03:00:05.939Z,16.60
2023-01-13T03:00:38.370Z,17.15
2023-01-13T03:01:10.180Z,16.65
2023-01-13T03:01:42.751Z,16.38
2023-01-13T03:02:18.851Z,16.63
2023-01-13T03:02:50.746Z,17.05
2023-01-13T03:03:22.386Z,16.17
2023-01-13T03:03:53.971Z,16.17
2023-01-13T03:04:57.183Z,17.35
2023-01-13T03:05:31.802Z,16.75
2023-01-13T03:06:30.360Z,17.17
2023-01-13T03:07:12.987Z,17.38
2023-01-13T03:08:15.621Z,17.88
2023-01-13T03:08:58.679Z,16.52
2023-01-13T03:09:40.453Z,17.30
2023-01-13T03:10:33.389Z,17.00
2023-01-13T03:11:08.216Z,20.33
2023-01-13T03:11:53.438Z,19.83
2023-01-13T03:12:51.988Z,19.23
2023-01-13T03:13:52.759Z,17.27
2023-01-13T03:14:27.456Z,17.75
2023-01-13T03:15:22.190Z,18.55
2023-01-13T03:15:53.794Z,18.73
2023-01-13T03:16:53.137Z,18.38
2023-01-13T03:17:32.860Z,17.88
2023-01-13T03:18:29.762Z,16.98
2023-01-13T03:19:21.693Z,17.00
2023-01-13T03:20:37.575Z,15.43
2023-01-13T03:21:37.137Z,15.63
2023-01-13T03:22:08.689Z,16.55
2023-01-13T03:22:50.588Z,17.75
2023-01-13T03:23:33.064Z,17.80
2023-01-13T03:24:26.470Z,18.67
2023-01-13T03:25:02.229Z,18.05
2023-01-13T03:25:47.305Z,18.80
2023-01-13T03:26:33.582Z,18.23
2023-01-13T03:27:16.729Z,17.73
2023-01-13T03:27:54.797Z,18.20
2023-01-13T03:28:31.806Z,18.92
2023-01-13T03:29:14.865Z,18.33
2023-01-13T03:29:54.076Z,18.95
2023-01-13T03:30:36.848Z,19.63
2023-01-13T03:31:19.309Z,19.48
2023-01-13T03:32:06.742Z,19.27
2023-01-13T03:32:42.378Z,20.05
2023-01-13T03:33:19.720Z,19.35
2023-01-13T03:34:03.307Z,18.70
2023-01-13T03:34:45.889Z,20.90
2023-01-13T03:35:31.004Z,18.38
2023-01-13T03:36:08.076Z,18.52
2023-01-13T03:36:41.524Z,19.40
2023-01-13T03:37:16.896Z,19.20
2023-01-13T03:37:55.814Z,19.20
2023-01-13T03:38:36.649Z,19.17
2023-01-13T03:39:12.573Z,18.20
2023-01-13T03:39:50.123Z,19.20
2023-01-13T03:40:29.209Z,19.35
2023-01-13T03:41:06.621Z,18.88
2023-01-13T03:41:49.021Z,19.35
2023-01-13T03:42:24.643Z,18.85
2023-01-13T03:43:21.786Z,19.30
2023-01-13T03:44:23.985Z,18.08
2023-01-13T03:45:05.348Z,17.88
2023-01-13T03:45:40.044Z,17.00
2023-01-13T03:46:22.609Z,17.65
2023-01-13T03:47:12.815Z,17.52
2023-01-13T03:47:56.232Z,17.88
2023-01-13T03:48:31.712Z,17.83
2023-01-13T03:49:05.616Z,18.45
2023-01-13T03:49:39.961Z,18.83
2023-01-13T03:50:27.851Z,18.75
2023-01-13T03:51:06.398Z,18.38
2023-01-13T03:51:41.261Z,17.50
2023-01-13T03:52:41.820Z,19.05
2023-01-13T03:53:34.601Z,17.05
2023-01-13T03:54:11.688Z,17.38
2023-01-13T03:54:50.620Z,17.40
2023-01-13T03:55:45.245Z,16.77
2023-01-13T03:56:25.635Z,16.30
2023-01-13T03:57:01.251Z,16.70
2023-01-13T03:57:38.529Z,17.00
2023-01-13T03:58:19.526Z,17.23
2023-01-13T03:58:53.187Z,17.80
2023-01-13T03:59:29.548Z,16.85
2023-01-13T04:00:04.348Z,17.48
2023-01-13T04:00:52.004Z,18.02
2023-01-13T04:01:40.172Z,17.48
2023-01-13T04:02:28.492Z,17.23
2023-01-13T04:03:13.211Z,17.40
2023-01-13T04:03:55.622Z,16.92
2023-01-13T04:04:33.021Z,17.20
2023-01-13T04:05:09.293Z,17.55
2023-01-13T04:05:47.484Z,16.52
2023-01-13T04:06:40.464Z,17.52
2023-01-13T04:07:30.682Z,16.65
2023-01-13T04:08:14.623Z,17.75
2023-01-13T04:08:53.634Z,16.77
2023-01-13T04:09:40.352Z,17.08
2023-01-13T04:10:14.054Z,16.30
2023-01-13T04:10:52.027Z,15.88
2023-01-13T04:11:38.009Z,17.17
2023-01-13T04:12:12.687Z,16.73
2023-01-13T04:13:02.224Z,17.27
2023-01-13T04:13:38.261Z,17.15
2023-01-13T04:14:11.939Z,17.27
2023-01-13T04:14:44.583Z,16.63
2023-01-13T04:15:18.690Z,17.13
2023-01-13T04:15:50.469Z,17.58
2023-01-13T04:16:22.235Z,17.55
2023-01-13T04:16:53.910Z,17.77
2023-01-13T04:17:25.540Z,18.58
2023-01-13T04:18:27.339Z,17.80
2023-01-13T04:18:58.959Z,16.95
2023-01-13T04:19:31.769Z,17.98
2023-01-13T04:20:03.421Z,17.60
2023-01-13T04:20:35.471Z,17.13
2023-01-13T04:21:07.807Z,18.00
2023-01-13T04:21:39.458Z,17.55
2023-01-13T04:22:11.073Z,18.42
2023-01-13T04:22:42.703Z,16.90
2023-01-13T04:23:15.160Z,16.25
2023-01-13T04:23:46.741Z,17.25
2023-01-13T04:24:18.429Z,16.88
2023-01-13T04:24:50.007Z,16.92
2023-01-13T04:25:21.607Z,16.60
2023-01-13T04:25:53.220Z,16.42
2023-01-13T04:26:24.878Z,18.40
2023-01-13T04:26:56.614Z,17.58
2023-01-13T04:27:28.207Z,18.80
2023-01-13T04:27:59.795Z,17.45
2023-01-13T04:28:31.464Z,18.42
2023-01-13T04:29:03.125Z,17.80
2023-01-13T04:29:35.315Z,17.88
2023-01-13T04:30:07.508Z,17.48
2023-01-13T04:30:39.316Z,18.17
2023-01-13T04:31:11.010Z,18.35
2023-01-13T04:31:42.997Z,17.63
2023-01-13T04:32:14.657Z,17.95
2023-01-13T04:32:46.271Z,18.60
2023-01-13T04:33:19.332Z,18.20
2023-01-13T04:33:50.960Z,17.92
2023-01-13T04:34:22.592Z,17.17
2023-01-13T04:34:54.299Z,18.17
2023-01-13T04:35:25.956Z,17.13
2023-01-13T04:35:57.524Z,17.83
2023-01-13T04:36:29.197Z,18.17
2023-01-13T04:37:00.790Z,16.83
2023-01-13T04:37:32.338Z,18.45
2023-01-13T04:38:07.824Z,17.90
2023-01-13T04:38:39.475Z,18.20
2023-01-13T04:39:11.081Z,18.58
2023-01-13T04:39:42.660Z,19.02
2023-01-13T04:40:14.233Z,18.75
2023-01-13T04:40:45.874Z,18.33
2023-01-13T04:41:17.433Z,19.60
2023-01-13T04:41:57.810Z,18.50
2023-01-13T04:42:29.444Z,18.95
2023-01-13T04:43:01.173Z,18.48
2023-01-13T04:43:32.808Z,19.13
2023-01-13T04:44:04.556Z,19.13
2023-01-13T04:44:36.774Z,18.73
2023-01-13T04:45:09.610Z,18.90
2023-01-13T04:45:42.474Z,19.52
2023-01-13T04:46:14.366Z,18.58
2023-01-13T04:46:46.673Z,19.00
2023-01-13T04:47:18.351Z,19.48
2023-01-13T04:47:49.963Z,18.83
2023-01-13T04:48:21.599Z,18.83
2023-01-13T04:48:53.153Z,19.27
2023-01-13T04:49:24.728Z,18.95
2023-01-13T04:49:56.266Z,19.40
2023-01-13T04:50:28.143Z,19.35
2023-01-13T04:50:59.776Z,18.73
2023-01-13T04:51:31.369Z,18.75
2023-01-13T04:52:03.978Z,18.08
2023-01-13T04:52:35.629Z,19.13
2023-01-13T04:53:07.282Z,18.70
2023-01-13T04:53:38.832Z,18.80
2023-01-13T04:54:11.374Z,19.13
2023-01-13T04:54:42.941Z,17.58
2023-01-13T04:55:14.678Z,18.40
2023-01-13T04:55:47.933Z,18.38
2023-01-13T04:56:19.478Z,17.25
2023-01-13T04:56:51.088Z,17.50
2023-01-13T04:57:22.658Z,18.38
2023-01-13T04:57:54.335Z,18.70
2023-01-13T04:58:26.023Z,18.25
2023-01-13T04:58:57.621Z,17.48
2023-01-13T04:59:29.171Z,18.55
2023-01-13T05:00:02.077Z,18.00
2023-01-13T05:00:34.195Z,17.52
2023-01-13T05:01:05.759Z,18.40
2023-01-13T05:01:37.981Z,17.40
2023-01-13T05:02:09.922Z,17.77
2023-01-13T05:02:41.731Z,17.88
2023-01-13T05:03:13.404Z,18.85
2023-01-13T05:03:45.020Z,18.67
2023-01-13T05:04:17.130Z,18.50
2023-01-13T05:04:49.043Z,18.02
2023-01-13T05:05:20.698Z,19.08
2023-01-13T05:05:52.319Z,17.77
2023-01-13T05:06:23.967Z,17.90
2023-01-13T05:06:55.702Z,18.73
2023-01-13T05:07:27.661Z,19.60
2023-01-13T05:07:59.516Z,19.92
2023-01-13T05:08:31.065Z,19.73
2023-01-13T05:09:02.879Z,20.50
2023-01-13T05:09:34.521Z,18.73
2023-01-13T05:10:06.428Z,19.17
2023-01-13T05:10:37.977Z,19.23
2023-01-13T05:11:28.122Z,19.45
2023-01-13T05:12:18.603Z,20.02
2023-01-13T05:13:16.309Z,19.60
2023-01-13T05:14:06.214Z,20.00
2023-01-13T05:14:56.245Z,17.98
2023-01-13T05:15:46.844Z,17.80
2023-01-13T05:16:36.819Z,17.75
2023-01-13T05:17:10.070Z,17.55
2023-01-13T05:17:42.227Z,21.38
2023-01-13T05:18:13.932Z,24.90
2023-01-13T05:18:45.828Z,25.55
2023-01-13T05:19:17.371Z,27.40
2023-01-13T05:19:49.004Z,26.30
2023-01-13T05:20:20.615Z,32.42
2023-01-13T05:20:52.557Z,34.13
2023-01-13T05:21:42.834Z,33.58
2023-01-13T05:22:33.848Z,31.42
2023-01-13T05:23:24.306Z,29.00
2023-01-13T05:24:14.610Z,28.02
2023-01-13T05:25:05.235Z,27.50
2023-01-13T05:25:39.811Z,25.13
2023-01-13T05:26:11.837Z,24.95
2023-01-13T05:26:43.509Z,24.35
2023-01-13T05:27:15.088Z,25.83
2023-01-13T05:27:46.632Z,24.70
2023-01-13T05:28:18.223Z,24.48
2023-01-13T05:28:49.804Z,25.02
2023-01-13T05:29:21.395Z,24.05
2023-01-13T05:29:53.801Z,23.73
2023-01-13T05:30:30.690Z,23.05
2023-01-13T05:31:02.368Z,21.88
2023-01-13T05:31:33.980Z,22.42
2023-01-13T05:32:08.015Z,22.85
2023-01-13T05:32:39.850Z,21.33
2023-01-13T05:33:13.406Z,22.05
2023-01-13T05:33:45.024Z,20.65
2023-01-13T05:34:16.612Z,21.65
2023-01-13T05:34:48.372Z,21.30
2023-01-13T05:35:20.423Z,20.08
2023-01-13T05:35:52.407Z,20.63
2023-01-13T05:36:24.012Z,21.48
2023-01-13T05:36:55.642Z,20.85
2023-01-13T05:37:27.865Z,21.17
2023-01-13T05:37:59.469Z,20.27
2023-01-13T05:38:31.156Z,18.67
2023-01-13T05:39:02.826Z,18.70
2023-01-13T05:39:52.661Z,19.55
2023-01-13T05:40:42.638Z,17.70
2023-01-13T05:41:32.655Z,16.88
2023-01-13T05:42:22.950Z,17.02
2023-01-13T05:43:20.048Z,16.40
2023-01-13T05:43:51.621Z,17.30
2023-01-13T05:44:23.187Z,17.65
2023-01-13T05:44:54.770Z,17.42
2023-01-13T05:45:26.426Z,18.75
2023-01-13T05:45:58.033Z,18.55
2023-01-13T05:46:29.636Z,19.17
2023-01-13T05:47:01.231Z,18.40
2023-01-13T05:47:32.862Z,17.65
2023-01-13T05:48:04.474Z,17.85
2023-01-13T05:48:42.237Z,16.70
2023-01-13T05:49:13.847Z,17.92
2023-01-13T05:49:45.402Z,17.90
2023-01-13T05:50:17.048Z,18.13
2023-01-13T05:50:49.664Z,17.83
2023-01-13T05:51:26.237Z,19.63
2023-01-13T05:51:57.997Z,21.95
2023-01-13T05:52:29.542Z,21.83
2023-01-13T05:53:01.132Z,26.73
2023-01-13T05:53:33.584Z,20.70
2023-01-13T05:54:05.168Z,17.20
2023-01-13T05:54:36.746Z,19.05
2023-01-13T05:55:08.716Z,18.08
2023-01-13T05:55:41.523Z,17.27
2023-01-13T05:56:13.195Z,16.73
2023-01-13T05:56:44.788Z,16.50
2023-01-13T05:57:16.559Z,18.67
2023-01-13T05:57:48.197Z,17.33
2023-01-13T05:58:21.496Z,17.38
2023-01-13T05:58:53.097Z,18.27
2023-01-13T05:59:24.655Z,20.48
2023-01-13T05:59:56.198Z,19.75
2023-01-13T06:00:27.803Z,20.45
2023-01-13T06:01:03.208Z,21.45
2023-01-13T06:01:37.179Z,21.02
2023-01-13T06:02:08.912Z,20.45
2023-01-13T06:02:40.567Z,19.70
2023-01-13T06:03:13.115Z,20.10
2023-01-13T06:03:44.758Z,19.30
2023-01-13T06:04:16.328Z,18.65
2023-01-13T06:04:48.036Z,20.05
2023-01-13T06:05:19.614Z,21.23
2023-01-13T06:05:53.512Z,20.17
2023-01-13T06:06:25.087Z,19.45
2023-01-13T06:06:56.698Z,19.88
2023-01-13T06:07:28.251Z,18.50
2023-01-13T06:08:00.768Z,20.83
2023-01-13T06:08:32.696Z,18.92
2023-01-13T06:09:04.280Z,20.10
2023-01-13T06:09:35.848Z,20.23
2023-01-13T06:10:08.497Z,19.88
2023-01-13T06:10:40.041Z,22.50
2023-01-13T06:11:11.658Z,22.30
2023-01-13T06:11:43.301Z,21.02
2023-01-13T06:12:15.229Z,21.70
2023-01-13T06:12:46.773Z,22.52
2023-01-13T06:13:18.315Z,21.75
2023-01-13T06:13:49.901Z,22.33
2023-01-13T06:14:21.473Z,22.02
2023-01-13T06:14:53.090Z,20.90
2023-01-13T06:15:25.374Z,22.65
2023-01-13T06:15:58.919Z,23.08
2023-01-13T06:16:30.619Z,19.42
2023-01-13T06:17:02.280Z,20.73
2023-01-13T06:17:33.914Z,19.63
2023-01-13T06:18:06.036Z,18.83
2023-01-13T06:18:37.634Z,19.35
2023-01-13T06:19:12.937Z,19.38
2023-01-13T06:19:44.519Z,19.75
2023-01-13T06:20:16.848Z,19.83
2023-01-13T06:20:48.432Z,19.08
2023-01-13T06:21:19.973Z,19.17
2023-01-13T06:21:52.162Z,18.75
2023-01-13T06:22:27.220Z,19.42
2023-01-13T06:22:59.143Z,19.73
2023-01-13T06:23:35.027Z,18.88
2023-01-13T06:24:08.050Z,19.83
2023-01-13T06:24:40.055Z,18.42
2023-01-13T06:25:17.433Z,18.55
2023-01-13T06:26:15.635Z,18.98
2023-01-13T06:26:47.323Z,18.55
2023-01-13T06:27:19.099Z,19.83
2023-01-13T06:27:51.493Z,19.27
2023-01-13T06:28:23.143Z,19.77
2023-01-13T06:28:54.707Z,19.38
2023-01-13T06:29:26.296Z,20.23
2023-01-13T06:29:57.966Z,18.92
2023-01-13T06:30:35.779Z,18.67
2023-01-13T06:31:10.855Z,19.50
2023-01-13T06:31:43.034Z,19.25
2023-01-13T06:32:22.006Z,18.13
2023-01-13T06:32:58.796Z,18.17
2023-01-13T06:33:34.969Z,17.38
2023-01-13T06:34:12.156Z,18.42
2023-01-13T06:34:47.652Z,17.65
2023-01-13T06:35:28.460Z,17.23
2023-01-13T06:36:03.417Z,16.88
2023-01-13T06:36:39.671Z,17.13
2023-01-13T06:37:14.192Z,17.50
2023-01-13T06:37:50.904Z,16.77
2023-01-13T06:38:25.886Z,16.48
2023-01-13T06:39:00.959Z,16.55
2023-01-13T06:39:34.120Z,17.15
2023-01-13T06:40:07.083Z,16.85
2023-01-13T06:40:39.222Z,16.50
2023-01-13T06:41:10.857Z,16.25
2023-01-13T06:42:01.017Z,16.98
2023-01-13T06:42:53.302Z,16.33
2023-01-13T06:43:25.209Z,17.00
2023-01-13T06:43:57.422Z,16.02
2023-01-13T06:44:29.114Z,17.27
2023-01-13T06:45:00.779Z,15.90
2023-01-13T06:45:32.394Z,16.60
2023-01-13T06:46:04.061Z,16.52
2023-01-13T06:46:35.825Z,17.10
2023-01-13T06:47:07.924Z,16.95
2023-01-13T06:47:39.676Z,16.20
2023-01-13T06:48:11.346Z,16.08
2023-01-13T06:48:42.946Z,16.77
2023-01-13T06:49:14.620Z,16.58
2023-01-13T06:49:46.178Z,16.52
2023-01-13T06:50:18.757Z,17.23
2023-01-13T06:50:50.387Z,17.40
2023-01-13T06:51:21.978Z,17.67
2023-01-13T06:51:53.558Z,17.77
2023-01-13T06:52:25.276Z,18.75
2023-01-13T06:52:56.904Z,20.02
2023-01-13T06:53:28.470Z,20.42
2023-01-13T06:54:00.057Z,20.50
2023-01-13T06:54:31.954Z,18.80
2023-01-13T06:55:04.045Z,18.10
2023-01-13T06:55:36.047Z,17.85
2023-01-13T06:56:07.759Z,19.40
2023-01-13T06:56:39.341Z,17.33
2023-01-13T06:57:10.940Z,18.00
2023-01-13T06:57:53.328Z,19.20
2023-01-13T06:58:25.003Z,17.85
2023-01-13T06:58:56.559Z,18.02
2023-01-13T06:59:28.225Z,18.48
2023-01-13T06:59:59.807Z,18.30
2023-01-13T07:00:32.933Z,19.40
2023-01-13T07:01:04.797Z,18.95
2023-01-13T07:01:36.522Z,18.35
2023-01-13T07:02:08.273Z,18.85
2023-01-13T07:02:39.910Z,19.25
2023-01-13T07:03:16.495Z,18.85
2023-01-13T07:03:48.109Z,19.27
2023-01-13T07:04:19.735Z,17.80
2023-01-13T07:04:51.306Z,18.42
2023-01-13T07:05:22.930Z,18.20
2023-01-13T07:05:55.745Z,19.17
2023-01-13T07:06:27.335Z,19.63
2023-01-13T07:06:58.912Z,19.65
2023-01-13T07:07:30.467Z,19.15
2023-01-13T07:08:02.041Z,17.67
2023-01-13T07:08:33.597Z,18.25
2023-01-13T07:09:06.765Z,17.92
2023-01-13T07:09:38.749Z,18.52
2023-01-13T07:10:13.249Z,18.15
2023-01-13T07:10:44.844Z,18.40
2023-01-13T07:11:16.474Z,18.45
2023-01-13T07:11:48.193Z,18.60
2023-01-13T07:12:19.750Z,17.88
2023-01-13T07:13:09.604Z,19.50
2023-01-13T07:13:59.470Z,19.02
2023-01-13T07:14:49.492Z,18.27
2023-01-13T07:15:21.176Z,18.08
2023-01-13T07:15:56.452Z,18.95
2023-01-13T07:16:28.275Z,18.17
2023-01-13T07:16:59.860Z,17.77
2023-01-13T07:17:31.436Z,18.63
2023-01-13T07:18:03.370Z,18.08
2023-01-13T07:18:35.744Z,18.88
2023-01-13T07:19:07.347Z,19.50
2023-01-13T07:19:38.931Z,17.80
2023-01-13T07:20:11.050Z,18.13
2023-01-13T07:20:42.626Z,18.55
2023-01-13T07:21:18.783Z,19.33
2023-01-13T07:21:52.101Z,18.83
2023-01-13T07:22:24.562Z,18.25
2023-01-13T07:22:57.708Z,18.10
2023-01-13T07:23:31.535Z,18.90
2023-01-13T07:24:03.155Z,18.48
2023-01-13T07:24:34.728Z,17.17
2023-01-13T07:25:06.928Z,17.58
2023-01-13T07:25:38.504Z,18.35
2023-01-13T07:26:11.332Z,16.95
2023-01-13T07:26:42.895Z,17.52
2023-01-13T07:27:14.465Z,16.92
2023-01-13T07:27:46.050Z,16.98
2023-01-13T07:28:17.654Z,17.05
2023-01-13T07:28:49.255Z,16.67
2023-01-13T07:29:20.846Z,16.65
2023-01-13T07:29:52.465Z,17.88
2023-01-13T07:30:24.070Z,21.27
2023-01-13T07:30:57.555Z,20.75
2023-01-13T07:31:29.227Z,22.48
2023-01-13T07:32:01.464Z,21.52
2023-01-13T07:32:34.048Z,22.02
2023-01-13T07:33:05.604Z,21.83
2023-01-13T07:33:37.179Z,21.67
2023-01-13T07:34:08.833Z,21.45
2023-01-13T07:34:40.454Z,20.92
2023-01-13T07:35:12.137Z,20.45
2023-01-13T07:35:43.788Z,21.00
2023-01-13T07:36:15.676Z,20.67
2023-01-13T07:36:47.327Z,22.58
2023-01-13T07:37:18.914Z,20.15
2023-01-13T07:37:50.680Z,19.67
2023-01-13T07:38:22.457Z,20.95
2023-01-13T07:38:54.904Z,19.85
2023-01-13T07:39:26.618Z,20.38
2023-01-13T07:39:58.160Z,21.65
2023-01-13T07:40:29.749Z,20.35
2023-01-13T07:41:20.352Z,19.98
2023-01-13T07:42:10.300Z,18.00